createdAt,value
2023-02-26T00:01:48.611Z,21.54
2023-02-26T00:05:48.657Z,21.54
2023-02-26T00:09:48.750Z,21.54
2023-02-26T00:13:48.798Z,21.52
2023-02-26T00:17:48.855Z,21.51
2023-02-26T00:21:48.966Z,21.50
2023-02-26T00:25:49.100Z,21.49
2023-02-26T00:29:49.160Z,21.49
2023-02-26T00:33:49.275Z,21.48
2023-02-26T00:37:49.383Z,21.48
2023-02-26T00:41:49.448Z,21.47
2023-02-26T00:45:49.582Z,21.47
2023-02-26T00:49:49.684Z,21.47
2023-02-26T00:53:49.764Z,21.45
2023-02-26T00:57:49.895Z,21.45
2023-02-26T01:01:50.070Z,21.44
2023-02-26T01:05:50.095Z,21.44
2023-02-26T01:09:50.189Z,21.44
2023-02-26T01:13:50.269Z,21.43
2023-02-26T01:17:50.373Z,21.43
2023-02-26T01:21:50.415Z,21.42
2023-02-26T01:25:50.535Z,21.41
2023-02-26T01:29:50.614Z,21.41
2023-02-26T01:33:50.668Z,21.41
2023-02-26T01:37:50.770Z,21.40
2023-02-26T01:41:50.914Z,21.39
2023-02-26T01:45:50.989Z,21.39
2023-02-26T01:49:51.086Z,21.38
2023-02-26T01:53:51.196Z,21.37
2023-02-26T01:57:51.344Z,21.37
2023-02-26T02:01:51.409Z,21.38
2023-02-26T02:05:51.517Z,21.37
2023-02-26T02:09:51.599Z,21.36
2023-02-26T02:13:51.717Z,21.35
2023-02-26T02:17:51.811Z,21.35
2023-02-26T02:21:51.922Z,21.34
2023-02-26T02:25:52.010Z,21.34
2023-02-26T02:29:52.120Z,21.35
2023-02-26T02:33:52.241Z,21.34
2023-02-26T02:37:52.358Z,21.33
2023-02-26T02:41:52.436Z,21.32
2023-02-26T02:45:52.656Z,21.31
2023-02-26T02:49:52.657Z,21.30
2023-02-26T02:53:52.809Z,21.31
2023-02-26T02:57:52.988Z,21.30
2023-02-26T03:01:52.933Z,21.29
2023-02-26T03:05:53.030Z,21.29
2023-02-26T03:09:53.132Z,21.28
2023-02-26T03:13:53.224Z,21.28
2023-02-26T03:17:53.285Z,21.28
2023-02-26T03:21:53.340Z,21.27
2023-02-26T03:25:53.450Z,21.27
2023-02-26T03:29:53.517Z,21.27
2023-02-26T03:33:53.643Z,21.26
2023-02-26T03:37:53.707Z,21.26
2023-02-26T03:41:53.809Z,21.25
2023-02-26T03:45:54.014Z,21.24
2023-02-26T03:49:54.026Z,21.24
2023-02-26T03:53:54.215Z,21.24
2023-02-26T03:57:54.325Z,21.24
2023-02-26T04:01:54.477Z,21.23
2023-02-26T04:05:54.613Z,21.22
2023-02-26T04:09:54.750Z,21.22
2023-02-26T04:13:54.878Z,21.22
2023-02-26T04:17:55.047Z,21.21
2023-02-26T04:21:55.186Z,21.21
2023-02-26T04:25:55.293Z,21.21
2023-02-26T04:29:55.416Z,21.20
2023-02-26T04:33:55.546Z,21.20
2023-02-26T04:37:55.659Z,21.18
2023-02-26T04:41:55.834Z,21.19
2023-02-26T04:45:56.020Z,21.17
2023-02-26T04:49:56.067Z,21.17
2023-02-26T04:53:56.216Z,21.17
2023-02-26T04:57:56.349Z,21.16
2023-02-26T05:01:56.554Z,21.16
2023-02-26T05:05:56.594Z,21.16
2023-02-26T05:09:56.775Z,21.15
2023-02-26T05:13:56.876Z,21.14
2023-02-26T05:17:57.055Z,21.14
2023-02-26T05:21:57.157Z,21.13
2023-02-26T05:25:57.313Z,21.13
2023-02-26T05:29:57.446Z,21.12
2023-02-26T05:33:57.581Z,21.12
2023-02-26T05:37:57.677Z,21.12
2023-02-26T05:41:57.853Z,21.11
2023-02-26T05:45:58.022Z,21.11
2023-02-26T05:49:58.136Z,21.12
2023-02-26T05:53:58.252Z,21.10
2023-02-26T05:57:58.417Z,21.10
2023-02-26T06:01:58.634Z,21.10
2023-02-26T06:05:58.739Z,21.11
2023-02-26T06:09:58.905Z,21.12
2023-02-26T06:13:59.044Z,21.11
2023-02-26T06:17:59.208Z,21.13
2023-02-26T06:21:59.362Z,21.12
2023-02-26T06:25:59.512Z,21.12
2023-02-26T06:29:59.642Z,21.13
2023-02-26T06:33:59.826Z,21.14
2023-02-26T06:37:59.930Z,21.13
2023-02-26T06:42:00.080Z,21.13
2023-02-26T06:46:00.349Z,21.13
2023-02-26T06:50:00.402Z,21.13
2023-02-26T06:54:00.530Z,21.14
2023-02-26T06:58:00.678Z,21.14
2023-02-26T07:02:00.868Z,21.15
2023-02-26T07:06:18.654Z,21.14
2023-02-26T07:10:02.032Z,21.16
2023-02-26T07:14:01.026Z,21.18
2023-02-26T07:18:01.092Z,21.19
2023-02-26T07:22:01.107Z,21.21
2023-02-26T07:26:01.225Z,21.22
2023-02-26T07:30:01.292Z,21.24
2023-02-26T07:34:01.461Z,21.25
2023-02-26T07:38:01.649Z,21.27
2023-02-26T07:42:01.780Z,21.31
2023-02-26T07:46:01.950Z,21.40
2023-02-26T07:50:02.004Z,22.26
2023-02-26T07:54:02.212Z,22.86
2023-02-26T07:58:02.325Z,23.36
2023-02-26T08:02:02.420Z,23.29
2023-02-26T08:06:02.462Z,23.38
2023-02-26T08:10:02.533Z,24.35
2023-02-26T08:14:02.508Z,23.06
2023-02-26T08:18:02.632Z,22.92
2023-02-26T08:22:02.752Z,23.17
2023-02-26T08:26:02.890Z,23.31
2023-02-26T08:30:02.951Z,23.21
2023-02-26T08:34:03.087Z,22.98
2023-02-26T08:38:03.206Z,22.93
2023-02-26T08:42:03.309Z,22.95
2023-02-26T08:46:03.405Z,22.88
2023-02-26T08:50:03.565Z,22.93
2023-02-26T08:54:03.577Z,23.06
2023-02-26T08:58:03.618Z,23.33
2023-02-26T09:02:03.732Z,23.43
2023-02-26T09:06:03.959Z,23.54
2023-02-26T09:10:03.999Z,23.78
2023-02-26T09:14:04.104Z,24.24
2023-02-26T09:18:04.080Z,25.05
2023-02-26T09:22:06.083Z,26.11
2023-02-26T09:26:04.109Z,27.07
2023-02-26T09:30:03.987Z,27.51
2023-02-26T09:34:03.852Z,26.32
2023-02-26T09:38:03.860Z,25.11
2023-02-26T09:42:03.958Z,26.43
2023-02-26T09:46:04.003Z,26.90
2023-02-26T09:50:03.894Z,26.79
2023-02-26T09:54:03.835Z,26.53
2023-02-26T09:58:03.858Z,25.71
2023-02-26T10:02:04.091Z,25.20
2023-02-26T10:06:04.034Z,24.57
2023-02-26T10:10:04.067Z,24.61
2023-02-26T10:14:04.056Z,24.66
2023-02-26T10:18:04.065Z,24.80
2023-02-26T10:22:04.818Z,24.61
2023-02-26T10:26:04.140Z,24.29
2023-02-26T10:30:04.291Z,23.96
2023-02-26T10:34:04.509Z,23.75
2023-02-26T10:38:04.837Z,23.64
2023-02-26T10:42:04.658Z,23.53
2023-02-26T10:46:04.671Z,23.42
2023-02-26T10:50:04.609Z,23.34
2023-02-26T10:54:04.587Z,23.30
2023-02-26T10:58:04.559Z,23.26
2023-02-26T11:02:04.589Z,23.24
2023-02-26T11:06:04.468Z,23.21
2023-02-26T11:10:04.426Z,23.20
2023-02-26T11:14:04.385Z,23.20
2023-02-26T11:18:04.364Z,23.21
2023-02-26T11:22:04.288Z,23.22
2023-02-26T11:26:04.244Z,23.27
2023-02-26T11:30:04.232Z,23.33
2023-02-26T11:34:04.182Z,23.36
2023-02-26T11:38:04.224Z,23.36
2023-02-26T11:42:04.109Z,23.38
2023-02-26T11:46:04.058Z,23.42
2023-02-26T11:50:03.959Z,23.41
2023-02-26T11:54:03.881Z,23.40
2023-02-26T11:58:03.800Z,23.38
2023-02-26T12:02:03.694Z,23.39
2023-02-26T12:06:03.598Z,23.42
2023-02-26T12:10:03.502Z,23.40
2023-02-26T12:14:03.391Z,23.40
2023-02-26T12:18:03.305Z,23.42
2023-02-26T12:22:03.179Z,23.47
2023-02-26T12:26:03.106Z,23.52
2023-02-26T12:30:03.098Z,23.52
2023-02-26T12:34:03.105Z,23.51
2023-02-26T12:38:03.141Z,23.52
2023-02-26T12:42:03.184Z,23.53
2023-02-26T12:46:03.219Z,23.56
2023-02-26T12:50:03.410Z,23.59
2023-02-26T12:54:03.248Z,23.62
2023-02-26T12:58:03.140Z,23.65
2023-02-26T13:02:03.056Z,23.69
2023-02-26T13:06:02.951Z,23.71
2023-02-26T13:10:02.868Z,23.72
2023-02-26T13:14:02.743Z,23.72
2023-02-26T13:18:02.684Z,23.73
2023-02-26T13:22:02.604Z,23.75
2023-02-26T13:26:02.535Z,23.77
2023-02-26T13:30:02.440Z,23.79
2023-02-26T13:34:02.490Z,23.77
2023-02-26T13:38:02.647Z,23.75
2023-02-26T13:42:02.760Z,23.73
2023-02-26T13:46:02.738Z,23.72
2023-02-26T13:50:02.526Z,23.72
2023-02-26T13:54:02.506Z,23.75
2023-02-26T13:58:02.359Z,23.76
2023-02-26T14:02:02.304Z,23.79
2023-02-26T14:06:02.178Z,23.82
2023-02-26T14:10:02.116Z,23.85
2023-02-26T14:14:02.040Z,23.83
2023-02-26T14:18:01.959Z,23.86
2023-02-26T14:22:01.831Z,23.84
2023-02-26T14:26:01.750Z,23.82
2023-02-26T14:30:01.731Z,23.77
2023-02-26T14:34:01.846Z,23.72
2023-02-26T14:38:02.014Z,23.77
2023-02-26T14:42:02.153Z,23.81
2023-02-26T14:46:02.311Z,23.84
2023-02-26T14:50:02.413Z,23.83
2023-02-26T14:54:02.551Z,23.75
2023-02-26T14:58:02.731Z,23.69
2023-02-26T15:02:02.910Z,23.65
2023-02-26T15:06:03.309Z,23.61
2023-02-26T15:10:02.845Z,23.57
2023-02-26T15:14:02.561Z,23.54
2023-02-26T15:18:02.496Z,23.51
2023-02-26T15:22:02.410Z,23.49
2023-02-26T15:26:02.327Z,23.44
2023-02-26T15:30:02.362Z,23.42
2023-02-26T15:34:02.115Z,23.39
2023-02-26T15:38:02.019Z,23.37
2023-02-26T15:42:01.950Z,23.35
2023-02-26T15:46:03.588Z,23.33
2023-02-26T15:50:02.025Z,23.31
2023-02-26T15:54:02.525Z,23.30
2023-02-26T15:58:02.361Z,23.26
2023-02-26T16:02:02.543Z,23.24
2023-02-26T16:06:02.533Z,23.21
2023-02-26T16:10:02.661Z,23.20
2023-02-26T16:14:02.674Z,23.19
2023-02-26T16:18:02.700Z,23.16
2023-02-26T16:22:02.740Z,23.13
2023-02-26T16:26:02.743Z,23.12
2023-02-26T16:30:02.791Z,23.09
2023-02-26T16:34:02.745Z,23.07
2023-02-26T16:38:02.812Z,23.06
2023-02-26T16:42:02.761Z,23.04
2023-02-26T16:46:02.752Z,23.01
2023-02-26T16:50:02.746Z,22.98
2023-02-26T16:54:02.782Z,22.96
2023-02-26T16:58:03.008Z,22.95
2023-02-26T17:02:02.819Z,22.93
2023-02-26T17:06:02.846Z,22.91
2023-02-26T17:10:02.919Z,22.89
2023-02-26T17:14:02.956Z,22.87
2023-02-26T17:18:03.073Z,22.85
2023-02-26T17:22:03.120Z,22.82
2023-02-26T17:26:03.202Z,22.79
2023-02-26T17:30:03.290Z,22.77
2023-02-26T17:34:03.443Z,22.76
2023-02-26T17:38:03.560Z,22.74
2023-02-26T17:42:03.848Z,22.72
2023-02-26T17:46:03.812Z,22.72
2023-02-26T17:50:03.960Z,22.70
2023-02-26T17:54:04.093Z,22.68
2023-02-26T17:58:04.237Z,22.66
2023-02-26T18:02:04.418Z,22.66
2023-02-26T18:06:04.531Z,22.64
2023-02-26T18:10:04.681Z,22.63
2023-02-26T18:14:04.858Z,22.61
2023-02-26T18:18:05.079Z,22.60
2023-02-26T18:22:05.239Z,22.59
2023-02-26T18:26:05.412Z,22.58
2023-02-26T18:30:05.893Z,22.57
2023-02-26T18:34:05.807Z,22.55
2023-02-26T18:38:06.006Z,22.55
2023-02-26T18:42:06.217Z,22.54
2023-02-26T18:46:06.249Z,22.51
2023-02-26T18:50:06.230Z,22.51
2023-02-26T18:54:06.230Z,22.49
2023-02-26T18:58:06.278Z,22.48
2023-02-26T19:02:06.287Z,22.48
2023-02-26T19:06:06.273Z,22.45
2023-02-26T19:10:06.283Z,22.44
2023-02-26T19:14:06.301Z,22.43
2023-02-26T19:18:06.284Z,22.42
2023-02-26T19:22:06.388Z,22.41
2023-02-26T19:26:06.387Z,22.39
2023-02-26T19:30:06.420Z,22.39
2023-02-26T19:34:06.410Z,22.38
2023-02-26T19:38:06.410Z,22.36
2023-02-26T19:42:06.440Z,22.35
2023-02-26T19:46:06.522Z,22.34
2023-02-26T19:50:06.494Z,22.33
2023-02-26T19:54:06.508Z,22.32
2023-02-26T19:58:06.522Z,22.30
2023-02-26T20:02:06.563Z,22.29
2023-02-26T20:06:06.702Z,22.28
2023-02-26T20:10:06.860Z,22.27
2023-02-26T20:14:07.037Z,22.26
2023-02-26T20:18:07.238Z,22.25
2023-02-26T20:22:07.335Z,22.24
2023-02-26T20:26:07.584Z,22.23
2023-02-26T20:30:07.754Z,22.23
2023-02-26T20:34:07.983Z,22.21
2023-02-26T20:38:08.202Z,22.20
2023-02-26T20:42:08.329Z,22.20
2023-02-26T20:46:08.465Z,22.19
2023-02-26T20:50:08.608Z,22.19
2023-02-26T20:54:08.780Z,22.17
2023-02-26T20:58:09.007Z,22.16
2023-02-26T21:02:09.234Z,22.16
2023-02-26T21:06:09.408Z,22.15
2023-02-26T21:10:09.569Z,22.15
2023-02-26T21:14:09.722Z,22.14
2023-02-26T21:18:09.805Z,22.12
2023-02-26T21:22:09.940Z,22.12
2023-02-26T21:26:10.028Z,22.11
2023-02-26T21:30:10.145Z,22.11
2023-02-26T21:34:30.219Z,22.10
2023-02-26T21:38:11.315Z,22.09
2023-02-26T21:42:10.341Z,22.08
2023-02-26T21:46:10.383Z,22.07
2023-02-26T21:50:10.355Z,22.07
2023-02-26T21:54:10.410Z,22.06
2023-02-26T21:58:10.527Z,22.06
2023-02-26T22:02:10.666Z,22.05
2023-02-26T22:06:10.803Z,22.05
2023-02-26T22:10:11.005Z,22.03
2023-02-26T22:14:11.001Z,22.01
2023-02-26T22:18:11.091Z,22.01
2023-02-26T22:22:11.119Z,22.01
2023-02-26T22:26:11.243Z,22.00
2023-02-26T22:30:11.285Z,22.00
2023-02-26T22:34:11.337Z,22.00
2023-02-26T22:38:11.482Z,21.98
2023-02-26T22:42:11.562Z,21.96
2023-02-26T22:46:11.801Z,21.95
2023-02-26T22:50:11.724Z,21.96
2023-02-26T22:54:11.763Z,21.95
2023-02-26T22:58:11.892Z,21.94
2023-02-26T23:02:11.928Z,21.93
2023-02-26T23:06:12.029Z,21.93
2023-02-26T23:10:12.087Z,21.92
2023-02-26T23:14:12.184Z,21.92
2023-02-26T23:18:12.261Z,21.91
2023-02-26T23:22:12.358Z,21.90
2023-02-26T23:26:12.435Z,21.89
2023-02-26T23:30:12.508Z,21.88
2023-02-26T23:34:12.758Z,21.87
2023-02-26T23:38:12.716Z,21.87
2023-02-26T23:42:12.756Z,21.86
2023-02-26T23:46:12.873Z,21.86
2023-02-26T23:50:12.952Z,21.84
2023-02-26T23:54:13.016Z,21.84
2023-02-26T23:58:13.064Z,21.83
